Turret, Colorado
Current Conditions -  °F | °C
As of 2:35 PM on Wednesday 17 Dec 2014 (Local Time) from KANK Reporting Station
Scattered Clouds Scattered Clouds  
Wind Chill: 37°   Ceiling: Unl
Heat Index: 37°   Visibility: 10mi
Dew Point: 25°   Wind: 0mph
Humidity: 63%   Direction: NA
Pressure: 29.98"   Gusts: NA
Location:  38.5561°N, 106.066°W
Report Text: KANK 172135Z AUTO 00000KT 10SM SCT042 SCT055 SCT095 03/M04 A2998 RMK AO1 T00271038
Loading
Personal Weather Stations






























Interactive Weather Map New forecast layout! Learn more

10-Day Weather Forecast

Advertisements
Track Severe Weather on mobile